Time;durP1;ratioP1;P1;durP2;ratioP2;P2;SDS_P1;SDS_P2;PMS_P1;PMS_P2;Temp;Humidity;BMP_temperature;BMP_pressure;BME280_temperature;BME280_humidity;BME280_pressure;Samples;Min_cycle;Max_cycle;Signal;HPM_P1;HPM_P2
2021/12/16 00:02:08;;;;;;;5.47;4.43;;;;;;;5.94;100.00;99875.75;10473957;28;20048;-77
2021/12/16 00:07:26;;;;;;;9.05;4.68;;;;;;;5.94;100.00;99873.91;10472358;28;20044;-80
2021/12/16 00:34:04;;;;;;;7.28;4.88;;;;;;;5.95;100.00;99898.84;10471847;28;20049;-81
2021/12/16 00:39:11;;;;;;;7.63;5.50;;;;;;;5.95;100.00;99893.50;10452257;28;20055;-77
2021/12/16 00:44:24;;;;;;;7.22;5.80;;;;;;;5.99;100.00;99900.38;10471146;28;20040;-80
2021/12/16 00:49:39;;;;;;;7.15;5.57;;;;;;;6.03;100.00;99903.75;10473121;28;20049;-77
2021/12/16 00:54:46;;;;;;;9.50;5.93;;;;;;;6.07;100.00;99898.09;10453116;28;20045;-79
2021/12/16 00:59:52;;;;;;;10.50;6.13;;;;;;;6.13;100.00;99892.38;10467814;28;20048;-80
2021/12/16 01:05:17;;;;;;;8.18;6.20;;;;;;;6.13;100.00;99896.84;10450646;28;20045;-81
2021/12/16 01:59:09;;;;;;;17.45;12.23;;;;;;;6.37;100.00;99909.66;10471558;28;20964;-82
2021/12/16 02:04:22;;;;;;;22.20;13.77;;;;;;;6.34;100.00;99908.03;10451799;28;20072;-79
2021/12/16 02:09:32;;;;;;;16.65;13.40;;;;;;;6.39;100.00;99913.97;10467975;28;20076;-80
2021/12/16 02:36:23;;;;;;;25.02;17.10;;;;;;;6.30;100.00;99914.53;10469304;28;20047;-80
2021/12/16 02:41:29;;;;;;;23.42;17.25;;;;;;;6.25;100.00;99922.00;10481002;28;20040;-79
2021/12/16 02:51:53;;;;;;;28.43;18.67;;;;;;;6.33;100.00;99938.44;10462680;28;20136;-80
2021/12/16 02:56:58;;;;;;;28.25;19.50;;;;;;;6.35;100.00;99925.81;10461277;28;20053;-80
2021/12/16 03:02:08;;;;;;;26.65;19.20;;;;;;;6.32;100.00;99926.88;10473518;28;20052;-80
2021/12/16 03:07:17;;;;;;;31.48;20.75;;;;;;;6.34;100.00;99932.13;10457525;28;20136;-80
2021/12/16 03:17:53;;;;;;;31.58;20.95;;;;;;;6.35;100.00;99943.72;10459871;28;20068;-80
2021/12/16 03:23:10;;;;;;;29.02;19.63;;;;;;;6.35;100.00;99930.34;10472739;28;20052;-79
2021/12/16 03:28:35;;;;;;;30.35;20.75;;;;;;;6.35;100.00;99919.63;10477452;28;20445;-80
2021/12/16 03:34:15;;;;;;;33.22;20.15;;;;;;;6.35;100.00;99920.47;10467889;28;20044;-79
2021/12/16 03:39:19;;;;;;;29.52;21.48;;;;;;;6.31;100.00;99932.31;10479646;28;20048;-78
2021/12/16 03:44:37;;;;;;;29.20;20.35;;;;;;;6.32;100.00;99939.38;10485432;28;20058;-82
2021/12/16 03:49:42;;;;;;;31.85;19.98;;;;;;;6.36;100.00;99940.94;10490296;28;20036;-81
2021/12/16 03:54:50;;;;;;;32.10;19.92;;;;;;;6.32;100.00;99950.97;10472482;28;20049;-79
2021/12/16 03:59:59;;;;;;;32.25;19.60;;;;;;;6.35;100.00;99946.38;10471608;28;21179;-79
2021/12/16 04:05:27;;;;;;;26.10;18.52;;;;;;;6.39;100.00;99946.09;10490259;28;20048;-79
2021/12/16 04:10:37;;;;;;;32.97;20.73;;;;;;;6.19;100.00;99950.00;10471829;28;20071;-80
2021/12/16 04:15:47;;;;;;;34.55;21.08;;;;;;;6.13;100.00;99945.91;10475953;28;20052;-81
2021/12/16 04:20:53;;;;;;;31.75;20.70;;;;;;;6.05;100.00;99948.22;10490894;28;20135;-81
2021/12/16 04:25:56;;;;;;;29.67;20.13;;;;;;;6.08;100.00;99952.50;10473105;28;20049;-81
2021/12/16 04:31:01;;;;;;;33.67;19.95;;;;;;;6.08;100.00;99958.69;10468791;28;20071;-84
2021/12/16 04:36:05;;;;;;;28.83;19.60;;;;;;;6.09;100.00;99955.06;10485825;28;20044;-83
2021/12/16 04:41:11;;;;;;;32.90;19.45;;;;;;;6.11;100.00;99961.19;10463930;28;20056;-81
2021/12/16 04:46:21;;;;;;;30.23;19.95;;;;;;;6.10;100.00;99962.13;10466611;28;20036;-82
2021/12/16 04:51:27;;;;;;;29.40;19.48;;;;;;;6.09;100.00;99957.75;10483085;28;20052;-83
2021/12/16 04:56:31;;;;;;;29.05;20.23;;;;;;;6.14;100.00;99962.81;10467442;28;20043;-82
2021/12/16 05:01:48;;;;;;;29.92;19.52;;;;;;;6.13;100.00;99972.66;10470284;28;20135;-82
2021/12/16 05:07:04;;;;;;;28.08;19.27;;;;;;;6.15;100.00;99976.13;10464199;28;20414;-80
2021/12/16 05:12:14;;;;;;;31.58;20.05;;;;;;;6.17;100.00;99984.88;10465113;28;20389;-81
2021/12/16 05:17:27;;;;;;;33.67;19.92;;;;;;;6.19;100.00;99986.59;10465165;28;20051;-81
2021/12/16 05:27:52;;;;;;;35.73;20.77;;;;;;;6.12;100.00;99973.63;10483371;28;20048;-82
2021/12/16 05:32:56;;;;;;;29.85;19.77;;;;;;;6.16;100.00;99976.97;10485294;28;20116;-82
2021/12/16 05:38:00;;;;;;;32.40;20.88;;;;;;;6.17;100.00;99976.00;10479604;28;20131;-81
2021/12/16 05:43:06;;;;;;;34.70;20.95;;;;;;;6.19;100.00;99981.25;10463935;28;20425;-80
2021/12/16 05:48:15;;;;;;;34.83;21.50;;;;;;;6.12;100.00;99976.28;10466049;28;20144;-81
2021/12/16 05:53:20;;;;;;;37.30;21.98;;;;;;;6.14;100.00;99979.75;10477302;28;20048;-75
2021/12/16 05:58:24;;;;;;;35.08;22.05;;;;;;;6.15;100.00;99986.81;10467222;28;20235;-74
2021/12/16 06:03:32;;;;;;;34.95;21.30;;;;;;;6.33;100.00;100002.69;10452284;28;20051;-78
2021/12/16 06:08:37;;;;;;;32.47;21.40;;;;;;;6.41;100.00;100002.22;10449060;28;20048;-75
2021/12/16 06:13:46;;;;;;;35.55;22.45;;;;;;;6.42;100.00;100011.97;10468263;28;20505;-75
2021/12/16 06:29:32;;;;;;;35.25;22.40;;;;;;;6.40;100.00;100017.44;10467697;28;20060;-75
2021/12/16 06:34:37;;;;;;;37.28;23.13;;;;;;;6.53;100.00;100020.19;10465074;28;20562;-74
2021/12/16 06:39:41;;;;;;;37.85;22.75;;;;;;;6.57;100.00;100018.19;10459544;28;20277;-74
2021/12/16 06:45:04;;;;;;;35.42;22.10;;;;;;;6.89;100.00;100017.94;10447147;28;20053;-75
2021/12/16 06:50:12;;;;;;;35.78;22.23;;;;;;;6.80;100.00;99997.97;10461926;28;20048;-75
2021/12/16 06:55:22;;;;;;;36.10;24.02;;;;;;;6.85;100.00;100006.56;10465616;28;20051;-76
2021/12/16 07:00:33;;;;;;;39.13;23.85;;;;;;;6.80;100.00;100016.72;10465807;28;20783;-76
2021/12/16 07:05:40;;;;;;;36.67;22.37;;;;;;;6.88;100.00;100018.94;10468944;28;20048;-75
2021/12/16 07:10:45;;;;;;;38.78;22.67;;;;;;;6.90;100.00;100025.03;10449020;28;20136;-76
2021/12/16 07:15:49;;;;;;;37.15;23.02;;;;;;;6.95;100.00;100028.28;10440722;28;20513;-77
2021/12/16 07:20:54;;;;;;;36.97;22.48;;;;;;;6.91;100.00;100021.38;10429811;28;20044;-79
2021/12/16 07:25:58;;;;;;;34.60;22.52;;;;;;;6.92;100.00;100033.81;10420410;28;20047;-77
2021/12/16 07:31:02;;;;;;;35.47;22.63;;;;;;;6.99;100.00;100035.19;10427994;28;20053;-77
2021/12/16 07:36:06;;;;;;;36.05;23.08;;;;;;;6.79;100.00;100045.31;10439064;28;20129;-78
2021/12/16 07:41:09;;;;;;;40.97;24.55;;;;;;;6.53;100.00;100070.19;10447712;28;20045;-79
2021/12/16 07:46:13;;;;;;;42.78;25.00;;;;;;;6.46;100.00;100072.41;10451365;28;20032;-79
2021/12/16 07:51:20;;;;;;;44.97;25.42;;;;;;;6.41;100.00;100078.03;10437422;28;20049;-79
2021/12/16 07:56:24;;;;;;;42.00;25.73;;;;;;;6.39;100.00;100088.00;10432740;28;20071;-79
2021/12/16 08:01:27;;;;;;;43.92;25.95;;;;;;;6.38;100.00;100083.59;10447702;28;20037;-79
2021/12/16 08:06:34;;;;;;;39.75;25.05;;;;;;;6.40;100.00;100092.38;10434053;28;20049;-80
2021/12/16 08:11:41;;;;;;;42.83;26.52;;;;;;;6.45;100.00;100105.50;10479344;28;20104;-77
2021/12/16 08:16:45;;;;;;;46.13;26.23;;;;;;;6.50;100.00;100102.53;10490146;28;20043;-83
2021/12/16 08:21:49;;;;;;;43.50;26.58;;;;;;;6.53;100.00;100111.25;10491917;28;20049;-80
2021/12/16 08:26:54;;;;;;;45.15;24.63;;;;;;;6.59;100.00;100126.91;10505151;28;20032;-80
2021/12/16 08:31:58;;;;;;;44.35;24.92;;;;;;;6.63;100.00;100130.28;10493900;28;20144;-79
2021/12/16 08:37:03;;;;;;;37.58;23.17;;;;;;;6.69;100.00;100129.06;10492001;28;20064;-81
2021/12/16 08:42:09;;;;;;;40.90;24.02;;;;;;;6.72;100.00;100136.88;10492888;28;20674;-81
2021/12/16 08:47:16;;;;;;;36.63;23.08;;;;;;;6.73;100.00;100127.88;10493661;28;20044;-81
2021/12/16 08:52:23;;;;;;;41.65;23.23;;;;;;;6.74;100.00;100127.81;10493396;28;20053;-79
2021/12/16 08:57:27;;;;;;;34.35;20.70;;;;;;;6.74;100.00;100135.84;10494606;28;20043;-81
2021/12/16 09:02:30;;;;;;;36.53;21.65;;;;;;;6.76;100.00;100117.84;10473884;28;20063;-82
2021/12/16 09:07:35;;;;;;;35.35;21.90;;;;;;;6.77;100.00;100130.28;10490851;28;20393;-80
2021/12/16 09:12:52;;;;;;;39.63;21.60;;;;;;;6.77;100.00;100132.13;10497752;28;20123;-82
2021/12/16 09:17:55;;;;;;;36.83;21.02;;;;;;;6.82;100.00;100124.63;10478569;28;20044;-81
2021/12/16 09:23:01;;;;;;;34.28;19.83;;;;;;;6.92;100.00;100119.56;10500189;28;20727;-82
2021/12/16 09:28:05;;;;;;;34.40;20.85;;;;;;;7.00;100.00;100119.94;10496626;28;20040;-81
2021/12/16 09:33:13;;;;;;;33.20;19.35;;;;;;;7.07;100.00;100117.75;10473153;28;20044;-80
2021/12/16 09:38:19;;;;;;;33.70;17.73;;;;;;;7.18;100.00;100130.47;10474563;28;20057;-81
2021/12/16 09:43:25;;;;;;;30.50;18.48;;;;;;;7.24;100.00;100135.44;10476320;28;20076;-80
2021/12/16 09:48:30;;;;;;;32.42;18.15;;;;;;;7.26;100.00;100138.88;10492663;28;21418;-81
2021/12/16 09:53:37;;;;;;;30.05;17.13;;;;;;;7.27;100.00;100135.25;10491236;28;20048;-82
2021/12/16 09:58:45;;;;;;;29.67;18.15;;;;;;;7.31;100.00;100136.78;10498200;28;20044;-82
2021/12/16 10:03:51;;;;;;;31.17;17.45;;;;;;;7.26;100.00;100144.25;10500888;28;20041;-81
2021/12/16 10:08:59;;;;;;;31.63;17.40;;;;;;;7.31;100.00;100141.28;10486886;28;20064;-81
2021/12/16 10:14:16;;;;;;;27.30;16.23;;;;;;;7.35;100.00;100140.13;10492133;28;20041;-81
2021/12/16 10:19:21;;;;;;;28.10;16.90;;;;;;;7.45;100.00;100133.22;10468726;28;20068;-76
2021/12/16 10:24:29;;;;;;;25.58;16.42;;;;;;;7.48;100.00;100126.78;10480641;28;20122;-79
2021/12/16 10:29:35;;;;;;;30.73;18.05;;;;;;;7.44;100.00;100126.13;10485105;28;20127;-78
2021/12/16 10:34:39;;;;;;;30.33;18.15;;;;;;;7.44;100.00;100125.28;10483715;28;20051;-77
2021/12/16 10:39:44;;;;;;;35.58;18.83;;;;;;;7.43;100.00;100128.91;10476972;28;20509;-77
2021/12/16 10:44:47;;;;;;;34.53;18.52;;;;;;;7.36;100.00;100144.53;10480356;28;20052;-77
2021/12/16 10:49:52;;;;;;;34.13;20.25;;;;;;;7.32;100.00;100168.00;10470169;28;20381;-77
2021/12/16 10:54:59;;;;;;;35.85;19.63;;;;;;;7.24;100.00;100178.31;10481629;28;20629;-78
2021/12/16 11:00:10;;;;;;;39.53;22.83;;;;;;;7.18;100.00;100173.38;10459105;28;20043;-77
2021/12/16 11:05:17;;;;;;;54.13;26.85;;;;;;;7.05;100.00;100189.38;10478818;28;20046;-78
2021/12/16 11:10:25;;;;;;;74.15;31.02;;;;;;;6.93;100.00;100191.84;10479213;28;20501;-78
2021/12/16 11:15:31;;;;;;;91.07;35.88;;;;;;;6.82;100.00;100198.81;10475880;28;20048;-77
2021/12/16 11:20:39;;;;;;;111.85;37.72;;;;;;;6.72;100.00;100196.69;10472794;28;20053;-77
2021/12/16 11:25:46;;;;;;;141.88;42.50;;;;;;;6.70;100.00;100192.38;10475210;28;20028;-77
2021/12/16 11:30:53;;;;;;;143.27;44.97;;;;;;;6.63;100.00;100211.50;10459178;28;20089;-77
2021/12/16 11:36:00;;;;;;;170.90;45.13;;;;;;;6.56;100.00;100209.25;10477197;28;20040;-77
2021/12/16 11:41:19;;;;;;;206.23;48.13;;;;;;;6.53;100.00;100215.69;10472940;28;20052;-76
2021/12/16 11:46:26;;;;;;;214.25;49.55;;;;;;;6.52;100.00;100226.50;10472776;28;20046;-77
2021/12/16 11:51:51;;;;;;;209.75;47.58;;;;;;;6.50;100.00;100210.50;10484656;28;20106;-76
2021/12/16 11:57:00;;;;;;;226.15;52.00;;;;;;;6.52;100.00;100224.66;10484680;28;20411;-77
2021/12/16 12:02:04;;;;;;;220.95;53.20;;;;;;;6.54;100.00;100221.88;10485990;28;20051;-76
2021/12/16 12:07:12;;;;;;;208.13;51.38;;;;;;;6.60;100.00;100224.22;10479814;28;20044;-76
2021/12/16 12:12:37;;;;;;;174.68;46.67;;;;;;;6.57;100.00;100216.34;10485905;28;20047;-76
2021/12/16 12:17:49;;;;;;;165.70;45.20;;;;;;;6.54;100.00;100222.75;10482833;28;20041;-76
2021/12/16 12:22:53;;;;;;;153.18;45.25;;;;;;;6.53;100.00;100226.38;10460653;28;20041;-76
2021/12/16 12:27:56;;;;;;;159.00;45.15;;;;;;;6.55;100.00;100228.97;10484184;28;20043;-76
2021/12/16 12:33:01;;;;;;;151.68;44.22;;;;;;;6.59;100.00;100236.72;10468304;28;20048;-76
2021/12/16 12:38:04;;;;;;;162.63;45.42;;;;;;;6.64;100.00;100231.13;10487093;28;20493;-76
2021/12/16 12:43:09;;;;;;;153.57;44.72;;;;;;;6.65;100.00;100230.13;10486421;28;20065;-77
2021/12/16 12:48:17;;;;;;;191.88;47.13;;;;;;;6.64;100.00;100233.78;10463456;28;20094;-77
2021/12/16 12:53:24;;;;;;;181.05;47.28;;;;;;;6.63;100.00;100232.06;10474854;28;20056;-77
2021/12/16 12:58:29;;;;;;;206.23;49.28;;;;;;;6.63;100.00;100232.91;10478107;28;20044;-77
2021/12/16 13:03:36;;;;;;;215.65;49.75;;;;;;;6.64;100.00;100233.78;10486254;28;20075;-79
2021/12/16 13:08:44;;;;;;;200.80;48.90;;;;;;;6.64;100.00;100220.41;10506921;28;20044;-79
2021/12/16 13:14:01;;;;;;;182.38;47.92;;;;;;;6.63;100.00;100227.56;10485937;28;20131;-79
2021/12/16 13:25:10;;;;;;;354.80;48.65;;;;;;;6.68;100.00;100229.97;10484709;28;20044;-79
2021/12/16 13:30:21;;;;;;;228.57;47.15;;;;;;;6.69;100.00;100234.38;10487493;28;20422;-80
2021/12/16 13:35:34;;;;;;;187.07;45.30;;;;;;;6.69;100.00;100225.47;10488187;28;20040;-79
2021/12/16 13:40:41;;;;;;;234.25;48.30;;;;;;;6.69;100.00;100226.34;10489595;28;20454;-79
2021/12/16 13:46:05;;;;;;;182.13;46.80;;;;;;;6.70;100.00;100225.38;10489784;28;20838;-78
2021/12/16 14:02:32;;;;;;;187.18;46.38;;;;;;;6.73;100.00;100248.44;10495309;28;20049;-79
2021/12/16 14:07:55;;;;;;;195.07;47.40;;;;;;;6.73;100.00;100265.38;10493767;28;20141;-80
2021/12/16 14:24:47;;;;;;;207.02;48.13;;;;;;;6.70;100.00;100292.34;10487358;28;20083;-80
2021/12/16 14:35:21;;;;;;;232.43;52.47;;;;;;;6.71;100.00;100296.75;10494384;28;20048;-79
2021/12/16 14:40:49;;;;;;;222.18;50.97;;;;;;;6.71;100.00;100301.22;10498919;28;20043;-79
2021/12/16 14:45:57;;;;;;;243.48;51.13;;;;;;;6.71;100.00;100295.88;10476072;28;20052;-78
2021/12/16 14:51:04;;;;;;;285.48;54.70;;;;;;;6.69;100.00;100290.63;10491953;28;20067;-80
2021/12/16 14:56:12;;;;;;;330.35;56.90;;;;;;;6.70;100.00;100303.06;10472081;28;20072;-81
2021/12/16 15:01:19;;;;;;;420.08;55.10;;;;;;;6.71;100.00;100309.28;10492869;28;20036;-80
2021/12/16 15:06:30;;;;;;;233.30;51.03;;;;;;;6.72;100.00;100305.63;10488704;28;20068;-78
2021/12/16 15:11:45;;;;;;;222.27;51.13;;;;;;;6.74;100.00;100304.63;10482842;28;20174;-78
2021/12/16 15:16:59;;;;;;;221.32;51.38;;;;;;;6.74;100.00;100303.75;10464130;28;20060;-79
2021/12/16 15:38:31;;;;;;;708.78;60.72;;;;;;;6.74;100.00;100306.41;10489399;28;20074;-78
2021/12/16 15:43:37;;;;;;;1219.03;70.75;;;;;;;6.73;100.00;100307.38;10478581;28;20065;-79
2021/12/16 15:48:40;;;;;;;1007.83;70.18;;;;;;;6.73;100.00;100313.59;10487859;28;20157;-78
2021/12/16 15:53:48;;;;;;;710.85;62.22;;;;;;;6.74;100.00;100304.63;10469785;28;20051;-76
2021/12/16 15:58:56;;;;;;;837.85;66.10;;;;;;;6.75;100.00;100309.03;10488191;28;20036;-77
2021/12/16 16:04:02;;;;;;;781.50;66.07;;;;;;;6.75;100.00;100305.47;10501875;28;20103;-79
2021/12/16 16:09:10;;;;;;;571.45;63.10;;;;;;;6.76;100.00;100307.19;10494475;28;20074;-77
2021/12/16 16:14:17;;;;;;;1288.80;74.47;;;;;;;6.73;100.00;100310.94;10493411;28;20498;-78
2021/12/16 16:19:23;;;;;;;369.60;59.60;;;;;;;6.72;100.00;100306.53;10471877;28;20087;-79
2021/12/16 16:24:32;;;;;;;384.92;61.97;;;;;;;6.72;100.00;100322.59;10495067;28;20104;-80
2021/12/16 16:29:40;;;;;;;294.55;60.92;;;;;;;6.73;100.00;100320.75;10499521;28;20128;-78
2021/12/16 16:34:46;;;;;;;295.65;60.10;;;;;;;6.74;100.00;100335.88;10479868;28;20045;-78
2021/12/16 16:39:52;;;;;;;257.60;56.35;;;;;;;6.74;100.00;100342.13;10497260;28;20466;-79
2021/12/16 16:44:58;;;;;;;247.18;56.97;;;;;;;6.73;100.00;100345.75;10496387;28;20738;-79
2021/12/16 16:50:07;;;;;;;208.43;51.65;;;;;;;6.75;100.00;100359.03;10498307;28;20076;-78
2021/12/16 16:55:20;;;;;;;185.90;48.67;;;;;;;6.75;100.00;100370.66;10491280;28;20140;-79
2021/12/16 17:00:28;;;;;;;181.88;47.92;;;;;;;6.76;100.00;100374.16;10473169;28;20045;-78
2021/12/16 17:05:34;;;;;;;167.20;45.75;;;;;;;6.77;100.00;100394.66;10476392;28;20061;-78
2021/12/16 17:10:43;;;;;;;138.70;42.90;;;;;;;6.79;100.00;100407.00;10491798;28;20048;-78
2021/12/16 17:21:16;;;;;;;105.43;37.58;;;;;;;6.82;100.00;100407.78;10476071;28;20068;-83
2021/12/16 17:26:22;;;;;;;122.38;40.72;;;;;;;6.79;100.00;100396.28;10462904;28;20135;-79
2021/12/16 17:31:37;;;;;;;113.38;40.47;;;;;;;6.77;100.00;100400.88;10465476;28;20504;-79
2021/12/16 17:36:44;;;;;;;113.90;41.97;;;;;;;6.79;100.00;100408.84;10465276;28;20041;-76
2021/12/16 17:41:54;;;;;;;110.35;40.53;;;;;;;6.77;100.00;100406.22;10443733;28;20043;-77
2021/12/16 17:47:01;;;;;;;122.40;43.20;;;;;;;6.78;100.00;100391.88;10457631;28;20063;-77
2021/12/16 17:52:07;;;;;;;105.57;39.08;;;;;;;6.78;100.00;100404.44;10459754;28;20041;-76
2021/12/16 17:57:11;;;;;;;116.22;41.28;;;;;;;6.75;100.00;100418.88;10460390;28;20048;-76
2021/12/16 18:02:19;;;;;;;118.78;42.10;;;;;;;6.71;100.00;100422.66;10462106;28;20158;-76
2021/12/16 18:12:21;;;;;;;109.78;41.70;;;;;;;6.63;100.00;100420.41;10461606;28;20616;-57
2021/12/16 18:17:34;;;;;;;120.75;42.20;;;;;;;6.58;100.00;100426.97;10445119;28;20067;-55
2021/12/16 18:22:42;;;;;;;114.60;42.40;;;;;;;6.57;100.00;100433.28;10425735;28;20458;-56
2021/12/16 18:27:48;;;;;;;109.65;41.20;;;;;;;6.56;100.00;100431.56;10420884;28;20143;-58
2021/12/16 18:32:58;;;;;;;118.15;41.30;;;;;;;6.56;100.00;100428.88;10427286;28;20053;-57
2021/12/16 18:38:07;;;;;;;118.10;42.97;;;;;;;6.57;100.00;100417.22;10422500;28;21253;-58
2021/12/16 18:43:12;;;;;;;107.03;40.13;;;;;;;6.55;100.00;100443.22;10424346;28;20045;-58
2021/12/16 18:48:21;;;;;;;99.60;38.17;;;;;;;6.50;100.00;100434.59;10438490;28;20121;-58
2021/12/16 19:00:14;;;;;;;76.95;34.38;;;;;;;6.48;100.00;100443.56;10427199;28;20433;-55
2021/12/16 19:05:18;;;;;;;81.57;36.80;;;;;;;6.48;100.00;100443.56;10420755;28;20452;-57
2021/12/16 19:10:26;;;;;;;63.20;31.58;;;;;;;6.50;100.00;100439.94;10421200;28;20049;-56
2021/12/16 19:15:31;;;;;;;57.47;28.83;;;;;;;6.51;100.00;100455.91;10421060;28;20053;-56
2021/12/16 19:20:37;;;;;;;42.67;25.23;;;;;;;6.46;100.00;100445.47;10410620;28;20733;-53
2021/12/16 19:25:43;;;;;;;35.45;22.15;;;;;;;6.42;100.00;100445.72;10396716;28;20054;-55
2021/12/16 19:30:51;;;;;;;32.72;21.15;;;;;;;6.45;100.00;100437.53;10395693;28;20502;-58
2021/12/16 19:35:55;;;;;;;33.90;21.42;;;;;;;6.44;100.00;100442.00;10394042;28;20670;-55
2021/12/16 19:41:01;;;;;;;36.42;21.52;;;;;;;6.42;100.00;100449.25;10393568;28;21324;-56
2021/12/16 19:46:06;;;;;;;36.10;21.77;;;;;;;6.39;100.00;100448.56;10390368;28;20044;-57
2021/12/16 19:51:12;;;;;;;27.58;18.85;;;;;;;6.35;100.00;100433.63;10376902;23;20062;-65
2021/12/16 19:56:17;;;;;;;24.73;16.20;;;;;;;6.30;100.00;100439.22;10362725;28;20436;-61
2021/12/16 20:01:24;;;;;;;25.02;16.42;;;;;;;6.29;100.00;100458.94;10344332;28;20050;-64
2021/12/16 20:06:29;;;;;;;21.13;14.98;;;;;;;6.28;100.00;100459.88;10361214;28;20506;-59
2021/12/16 20:11:35;;;;;;;21.15;15.43;;;;;;;6.26;100.00;100464.44;10361306;28;20416;-62
2021/12/16 20:16:45;;;;;;;26.70;16.90;;;;;;;6.16;100.00;100467.63;10361001;28;20053;-63
2021/12/16 20:21:52;;;;;;;28.48;17.90;;;;;;;6.08;100.00;100482.34;10358271;28;20049;-63
2021/12/16 20:26:59;;;;;;;24.00;16.35;;;;;;;6.01;100.00;100479.13;10360911;28;20052;-64
2021/12/16 20:32:07;;;;;;;23.42;14.07;;;;;;;6.00;100.00;100480.06;10357829;28;20069;-65
2021/12/16 20:37:15;;;;;;;16.08;11.52;;;;;;;5.98;100.00;100481.94;10359730;28;20046;-62
2021/12/16 20:42:24;;;;;;;12.88;9.90;;;;;;;5.96;100.00;100481.13;10358645;28;20096;-61
2021/12/16 20:47:32;;;;;;;12.32;8.98;;;;;;;5.97;100.00;100477.53;10348903;28;20061;-64
2021/12/16 20:52:56;;;;;;;12.85;9.80;;;;;;;5.95;100.00;100466.03;10340156;28;20774;-65
2021/12/16 20:58:03;;;;;;;14.98;10.95;;;;;;;5.90;100.00;100476.13;10358800;28;20042;-66
2021/12/16 21:03:08;;;;;;;16.05;10.88;;;;;;;5.85;100.00;100476.38;10359747;28;20125;-65
2021/12/16 21:08:11;;;;;;;17.83;12.93;;;;;;;5.85;100.00;100477.22;10358487;28;20045;-65
2021/12/16 21:13:15;;;;;;;17.13;13.25;;;;;;;5.80;100.00;100491.78;10355930;28;20049;-64
2021/12/16 21:18:22;;;;;;;18.75;13.45;;;;;;;5.75;100.00;100489.34;10354589;28;20532;-64
2021/12/16 21:23:28;;;;;;;17.92;11.93;;;;;;;5.71;100.00;100477.06;10356160;28;20363;-65
2021/12/16 21:28:32;;;;;;;18.38;12.55;;;;;;;5.65;100.00;100488.09;10357676;28;20052;-63
2021/12/16 21:33:48;;;;;;;20.52;14.00;;;;;;;5.62;100.00;100485.56;10358359;28;20043;-63
2021/12/16 21:38:53;;;;;;;25.83;13.98;;;;;;;5.60;100.00;100479.44;10348865;28;20052;-64
2021/12/16 21:43:58;;;;;;;21.95;15.60;;;;;;;5.60;100.00;100487.44;10341195;28;20068;-64
2021/12/16 21:49:09;;;;;;;19.52;13.95;;;;;;;5.60;100.00;100480.31;10326973;28;20196;-63
2021/12/16 21:54:12;;;;;;;17.02;12.00;;;;;;;5.65;100.00;100480.91;10340118;28;20130;-63
2021/12/16 21:59:17;;;;;;;20.08;12.80;;;;;;;5.61;100.00;100470.47;10336884;28;20905;-63
2021/12/16 22:04:24;;;;;;;19.38;11.70;;;;;;;5.56;100.00;100470.69;10358062;28;20469;-64
2021/12/16 22:09:29;;;;;;;18.45;12.88;;;;;;;5.46;100.00;100470.34;10356413;28;20161;-65
2021/12/16 22:14:34;;;;;;;23.10;15.45;;;;;;;5.19;100.00;100484.13;10357107;28;20057;-64
2021/12/16 22:19:39;;;;;;;25.73;15.35;;;;;;;5.03;100.00;100485.81;10353466;28;20512;-63
2021/12/16 22:24:43;;;;;;;28.75;17.88;;;;;;;4.84;100.00;100485.81;10356412;28;20434;-64
2021/12/16 22:29:47;;;;;;;37.28;20.75;;;;;;;4.73;100.00;100491.69;10352943;28;20045;-65
2021/12/16 22:34:52;;;;;;;38.20;21.58;;;;;;;4.62;100.00;100490.41;10357711;28;20073;-62
2021/12/16 22:39:55;;;;;;;45.15;23.92;;;;;;;4.46;100.00;100484.91;10355169;28;20147;-61
2021/12/16 22:44:58;;;;;;;51.33;25.42;;;;;;;4.35;100.00;100502.34;10356002;28;20056;-64
2021/12/16 22:50:05;;;;;;;64.40;29.42;;;;;;;4.28;100.00;100502.66;10356726;28;20077;-64
2021/12/16 22:55:10;;;;;;;69.60;31.13;;;;;;;4.23;100.00;100509.97;10337433;28;20528;-63
2021/12/16 23:00:17;;;;;;;66.43;30.25;;;;;;;4.20;100.00;100515.44;10362069;28;20048;-64
2021/12/16 23:05:22;;;;;;;59.58;28.50;;;;;;;4.15;100.00;100501.47;10363897;28;20073;-64
2021/12/16 23:10:25;;;;;;;58.80;27.70;;;;;;;4.11;100.00;100511.41;10364385;28;20049;-63
2021/12/16 23:16:04;;;;;;;52.72;26.25;;;;;;;4.04;100.00;100503.75;10365032;28;20044;-64
2021/12/16 23:26:40;;;;;;;47.15;24.33;;;;;;;3.85;100.00;100493.88;10272083;28;20068;-63
2021/12/16 23:31:44;;;;;;;34.28;18.50;;;;;;;3.77;100.00;100485.34;10360783;28;20042;-65
2021/12/16 23:36:49;;;;;;;45.53;22.25;;;;;;;3.66;100.00;100473.34;10364033;28;20115;-65
2021/12/16 23:58:13;;;;;;;49.20;21.88;;;;;;;3.35;100.00;100449.81;10337686;28;20056;-59
